createdAt,value
2018-03-29T00:01:24.943Z,94.60
2018-03-29T00:03:59.598Z,94.70
2018-03-29T00:06:33.724Z,94.70
2018-03-29T00:09:07.946Z,95.20
2018-03-29T00:11:42.980Z,95.30
2018-03-29T00:14:17.987Z,95.60
2018-03-29T00:16:52.106Z,95.60
2018-03-29T00:19:27.951Z,95.70
2018-03-29T00:22:02.579Z,95.70
2018-03-29T00:24:37.471Z,96.00
2018-03-29T00:27:12.032Z,96.10
2018-03-29T00:29:47.154Z,96.00
2018-03-29T00:32:22.194Z,95.90
2018-03-29T00:34:56.894Z,96.00
2018-03-29T00:37:31.659Z,96.50
2018-03-29T00:40:05.515Z,96.50
2018-03-29T00:42:40.139Z,96.70
2018-03-29T00:45:14.820Z,96.70
2018-03-29T00:47:50.367Z,96.50
2018-03-29T00:50:25.091Z,96.80
2018-03-29T00:53:10.770Z,96.90
2018-03-29T00:55:45.980Z,97.10
2018-03-29T00:58:20.156Z,97.10
2018-03-29T01:00:55.780Z,97.30
2018-03-29T01:03:30.808Z,97.30
2018-03-29T01:06:05.535Z,97.50
2018-03-29T01:08:40.944Z,97.40
2018-03-29T01:11:15.579Z,97.30
2018-03-29T01:13:50.620Z,97.30
2018-03-29T01:16:24.346Z,96.40
2018-03-29T01:18:58.740Z,95.80
2018-03-29T01:21:33.269Z,94.30
2018-03-29T01:24:10.046Z,94.30
2018-03-29T01:26:44.049Z,94.30
2018-03-29T01:29:18.591Z,93.60
2018-03-29T01:31:53.401Z,93.80
2018-03-29T01:34:28.845Z,93.70
2018-03-29T01:37:04.374Z,93.40
2018-03-29T01:39:39.436Z,93.40
2018-03-29T01:42:13.444Z,93.40
2018-03-29T01:44:48.985Z,93.20
2018-03-29T01:47:23.168Z,93.30
2018-03-29T01:49:58.958Z,93.10
2018-03-29T01:52:34.092Z,93.80
2018-03-29T01:55:09.512Z,93.80
2018-03-29T01:57:43.336Z,93.80
2018-03-29T02:00:19.508Z,93.70
2018-03-29T02:02:54.119Z,93.80
2018-03-29T02:05:29.955Z,93.70
2018-03-29T02:08:05.177Z,93.70
2018-03-29T02:10:40.172Z,93.20
2018-03-29T02:13:15.996Z,93.60
2018-03-29T02:15:51.128Z,93.60
2018-03-29T02:18:26.262Z,93.50
2018-03-29T02:21:00.470Z,93.50
2018-03-29T02:23:35.095Z,93.50
2018-03-29T02:26:09.959Z,93.50
2018-03-29T02:28:43.751Z,93.50
2018-03-29T02:31:18.497Z,93.90
2018-03-29T02:33:52.355Z,94.20
2018-03-29T02:36:29.108Z,93.90
2018-03-29T02:39:03.983Z,93.80
2018-03-29T02:41:40.147Z,94.00
2018-03-29T02:44:15.056Z,94.00
2018-03-29T02:46:49.876Z,94.00
2018-03-29T02:49:25.776Z,93.80
2018-03-29T02:52:01.180Z,94.00
2018-03-29T02:54:35.239Z,94.10
2018-03-29T02:57:10.493Z,94.10
2018-03-29T02:59:44.349Z,94.30
2018-03-29T03:02:19.451Z,94.20
2018-03-29T03:04:53.283Z,94.50
2018-03-29T03:07:27.515Z,94.60
2018-03-29T03:10:01.604Z,94.70
2018-03-29T03:12:36.133Z,94.70
2018-03-29T03:15:11.349Z,94.90
2018-03-29T03:17:46.392Z,94.90
2018-03-29T03:20:20.043Z,95.00
2018-03-29T03:22:54.732Z,95.60
2018-03-29T03:25:29.915Z,95.70
2018-03-29T03:28:04.838Z,96.00
2018-03-29T03:30:39.936Z,96.00
2018-03-29T03:33:15.170Z,96.10
2018-03-29T03:35:50.084Z,96.20
2018-03-29T03:38:24.720Z,96.30
2018-03-29T03:40:59.850Z,96.30
2018-03-29T03:43:34.634Z,96.40
2018-03-29T03:46:09.303Z,96.70
2018-03-29T03:48:43.070Z,96.70
2018-03-29T03:51:17.954Z,96.80
2018-03-29T03:53:51.734Z,96.70
2018-03-29T03:56:28.105Z,96.60
2018-03-29T03:59:02.631Z,96.40
2018-03-29T04:01:38.495Z,96.40
2018-03-29T04:04:12.494Z,96.40
2018-03-29T04:06:47.722Z,96.50
2018-03-29T04:09:22.456Z,96.30
2018-03-29T04:11:59.846Z,96.20
2018-03-29T04:14:35.394Z,96.50
2018-03-29T04:17:10.480Z,96.50
2018-03-29T04:19:44.748Z,96.70
2018-03-29T04:22:20.268Z,96.50
2018-03-29T04:24:54.195Z,96.60
2018-03-29T04:27:29.212Z,96.90
2018-03-29T04:30:02.926Z,96.80
2018-03-29T04:32:38.896Z,97.10
2018-03-29T04:35:13.508Z,97.10
2018-03-29T04:37:47.625Z,97.20
2018-03-29T04:40:22.033Z,97.20
2018-03-29T04:42:56.665Z,96.60
2018-03-29T04:45:30.556Z,96.60
2018-03-29T04:48:04.788Z,96.40
2018-03-29T04:50:39.303Z,96.50
2018-03-29T04:53:13.739Z,96.90
2018-03-29T04:55:48.456Z,97.40
2018-03-29T04:58:22.272Z,97.30
2018-03-29T05:00:58.632Z,96.90
2018-03-29T05:03:33.754Z,97.10
2018-03-29T05:06:09.195Z,97.00
2018-03-29T05:08:44.439Z,97.30
2018-03-29T05:11:19.279Z,97.30
2018-03-29T05:13:53.770Z,97.50
2018-03-29T05:16:28.207Z,97.50
2018-03-29T05:19:02.632Z,97.70
2018-03-29T05:21:38.487Z,97.70
2018-03-29T05:24:13.315Z,98.00
2018-03-29T05:26:49.060Z,98.10
2018-03-29T05:29:24.420Z,98.10
2018-03-29T05:31:59.211Z,97.80
2018-03-29T05:34:34.579Z,97.80
2018-03-29T05:37:09.496Z,97.80
2018-03-29T05:39:44.622Z,98.10
2018-03-29T05:42:20.059Z,98.10
2018-03-29T05:44:55.219Z,98.20
2018-03-29T05:47:29.817Z,98.10
2018-03-29T05:50:05.340Z,98.50
2018-03-29T05:52:39.791Z,98.60
2018-03-29T05:55:15.243Z,98.50
2018-03-29T05:57:49.158Z,98.50
2018-03-29T06:00:23.065Z,98.40
2018-03-29T06:02:57.547Z,98.60
2018-03-29T06:05:31.789Z,98.70
2018-03-29T06:08:05.987Z,98.90
2018-03-29T06:10:40.895Z,98.90
2018-03-29T06:13:15.843Z,98.90
2018-03-29T06:15:56.636Z,98.80
2018-03-29T06:18:32.422Z,98.80
2018-03-29T06:21:07.604Z,98.60
2018-03-29T06:23:42.235Z,98.60
2018-03-29T06:26:17.241Z,98.10
2018-03-29T06:28:51.799Z,97.90
2018-03-29T06:31:27.014Z,97.50
2018-03-29T06:34:00.947Z,97.50
2018-03-29T06:36:35.668Z,97.50
2018-03-29T06:39:11.205Z,97.30
2018-03-29T06:41:46.923Z,97.30
2018-03-29T06:44:21.712Z,96.80
2018-03-29T06:46:56.574Z,96.80
2018-03-29T06:49:31.168Z,96.70
2018-03-29T06:52:05.671Z,96.40
2018-03-29T06:54:40.397Z,96.00
2018-03-29T06:57:14.516Z,96.00
2018-03-29T06:59:48.826Z,95.50
2018-03-29T07:02:23.745Z,95.00
2018-03-29T07:04:58.904Z,94.60
2018-03-29T07:07:32.692Z,94.60
2018-03-29T07:10:10.808Z,94.70
2018-03-29T07:12:46.093Z,94.70
2018-03-29T07:15:21.077Z,94.70
2018-03-29T07:17:55.870Z,94.50
2018-03-29T07:20:29.923Z,94.50
2018-03-29T07:23:04.727Z,93.80
2018-03-29T07:25:40.277Z,93.40
2018-03-29T07:28:14.908Z,93.00
2018-03-29T07:30:49.219Z,93.00
2018-03-29T07:33:24.451Z,91.70
2018-03-29T07:35:58.417Z,92.00
2018-03-29T07:38:33.328Z,92.40
2018-03-29T07:41:08.436Z,90.40
2018-03-29T07:43:42.497Z,90.30
2018-03-29T07:46:21.983Z,89.40
2018-03-29T07:48:56.615Z,89.40
2018-03-29T07:51:30.754Z,87.60
2018-03-29T07:54:05.710Z,86.80
2018-03-29T07:56:40.644Z,83.90
2018-03-29T07:59:15.010Z,84.00
2018-03-29T08:01:49.021Z,83.50
2018-03-29T08:04:23.958Z,82.70
2018-03-29T08:06:57.523Z,82.60
2018-03-29T08:09:32.308Z,84.40
2018-03-29T08:12:11.050Z,84.10
2018-03-29T08:14:45.519Z,84.20
2018-03-29T08:17:19.610Z,82.50
2018-03-29T08:19:54.593Z,82.60
2018-03-29T08:22:30.112Z,87.50
2018-03-29T08:25:04.421Z,87.50
2018-03-29T08:27:39.346Z,81.60
2018-03-29T08:30:13.255Z,81.70
2018-03-29T08:32:48.373Z,80.80
2018-03-29T08:35:22.303Z,81.80
2018-03-29T08:37:57.735Z,81.70
2018-03-29T08:40:31.948Z,80.90
2018-03-29T08:43:06.369Z,80.80
2018-03-29T08:45:40.798Z,80.70
2018-03-29T08:48:14.701Z,81.40
2018-03-29T08:50:49.620Z,80.40
2018-03-29T08:53:23.343Z,80.60
2018-03-29T08:55:59.174Z,80.30
2018-03-29T08:58:34.187Z,79.40
2018-03-29T09:01:09.560Z,80.30
2018-03-29T09:03:44.580Z,80.80
2018-03-29T09:06:19.573Z,80.40
2018-03-29T09:08:54.666Z,79.00
2018-03-29T09:11:29.351Z,78.00
2018-03-29T09:14:03.308Z,77.90
2018-03-29T09:16:38.110Z,76.20
2018-03-29T09:19:13.443Z,80.40
2018-03-29T09:21:49.205Z,79.80
2018-03-29T09:24:23.598Z,79.70
2018-03-29T09:26:58.364Z,79.00
2018-03-29T09:29:32.971Z,77.70
2018-03-29T09:32:09.647Z,77.80
2018-03-29T09:34:44.693Z,78.70
2018-03-29T09:37:18.683Z,78.70
2018-03-29T09:39:53.422Z,77.30
2018-03-29T09:42:27.526Z,77.10
2018-03-29T09:45:01.759Z,76.00
2018-03-29T09:47:35.857Z,77.20
2018-03-29T09:50:10.987Z,78.10
2018-03-29T09:52:45.823Z,75.20
2018-03-29T09:55:21.213Z,73.30
2018-03-29T09:57:56.072Z,74.80
2018-03-29T10:00:35.522Z,75.70
2018-03-29T10:03:10.555Z,75.80
2018-03-29T10:05:47.552Z,75.90
2018-03-29T10:08:21.252Z,76.70
2018-03-29T10:10:55.151Z,75.20
2018-03-29T10:13:29.125Z,72.60
2018-03-29T10:16:03.771Z,72.90
2018-03-29T10:18:37.707Z,73.00
2018-03-29T10:21:12.122Z,74.70
2018-03-29T10:23:46.551Z,74.80
2018-03-29T10:26:21.050Z,72.50
2018-03-29T10:28:58.064Z,72.60
2018-03-29T10:31:33.166Z,69.70
2018-03-29T10:34:08.820Z,70.10
2018-03-29T10:36:42.588Z,70.20
2018-03-29T10:39:19.312Z,66.50
2018-03-29T10:41:56.374Z,66.50
2018-03-29T10:44:30.059Z,66.60
2018-03-29T10:47:04.605Z,65.40
2018-03-29T10:49:39.279Z,65.50
2018-03-29T10:52:15.355Z,65.80
2018-03-29T10:54:49.989Z,68.70
2018-03-29T10:57:25.202Z,72.00
2018-03-29T11:00:01.194Z,66.10
2018-03-29T11:02:38.181Z,64.00
2018-03-29T11:05:12.491Z,63.80
2018-03-29T11:07:46.384Z,61.20
2018-03-29T11:10:21.115Z,66.20
2018-03-29T11:12:55.972Z,68.70
2018-03-29T11:15:32.434Z,66.80
2018-03-29T11:18:10.824Z,63.40
2018-03-29T11:20:46.776Z,63.20
2018-03-29T11:23:21.768Z,66.50
2018-03-29T11:25:58.052Z,67.50
2018-03-29T11:28:31.879Z,67.40
2018-03-29T11:44:16.625Z,63.80
2018-03-29T11:46:51.291Z,60.80
2018-03-29T11:49:25.878Z,62.60
2018-03-29T11:51:59.867Z,62.50
2018-03-29T11:54:34.806Z,64.10
2018-03-29T11:57:09.438Z,64.10
2018-03-29T11:59:45.368Z,67.40
2018-03-29T12:02:19.584Z,67.70
2018-03-29T12:04:53.316Z,60.00
2018-03-29T12:07:27.823Z,66.80
2018-03-29T12:10:01.480Z,59.20
2018-03-29T12:12:37.372Z,62.60
2018-03-29T12:15:11.623Z,63.20
2018-03-29T12:17:45.595Z,57.60
2018-03-29T12:20:19.805Z,61.30
2018-03-29T12:22:54.232Z,53.70
2018-03-29T12:25:28.530Z,50.60
2018-03-29T12:28:06.172Z,54.70
2018-03-29T12:30:40.667Z,64.00
2018-03-29T12:33:14.835Z,63.90
2018-03-29T12:35:49.208Z,60.20
2018-03-29T12:38:23.604Z,60.00
2018-03-29T12:40:58.135Z,57.80
2018-03-29T12:43:32.949Z,54.30
2018-03-29T12:46:07.467Z,58.80
2018-03-29T12:48:42.093Z,52.70
2018-03-29T12:51:17.032Z,52.30
2018-03-29T12:53:51.051Z,52.20
2018-03-29T12:56:38.569Z,53.80
2018-03-29T12:59:12.285Z,53.80
2018-03-29T13:01:47.214Z,50.70
2018-03-29T13:04:21.163Z,50.40
2018-03-29T13:06:55.320Z,52.60
2018-03-29T13:09:29.541Z,55.60
2018-03-29T13:12:03.964Z,57.00
2018-03-29T13:14:38.149Z,56.90
2018-03-29T13:17:12.892Z,58.30
2018-03-29T13:19:51.363Z,58.40
2018-03-29T13:22:25.648Z,58.10
2018-03-29T13:24:59.686Z,61.40
2018-03-29T13:27:33.431Z,61.80
2018-03-29T13:30:07.329Z,64.30
2018-03-29T13:32:41.235Z,66.80
2018-03-29T13:35:15.988Z,66.50
2018-03-29T13:37:50.092Z,66.40
2018-03-29T13:40:23.827Z,68.30
2018-03-29T13:42:57.898Z,66.80
2018-03-29T13:45:31.917Z,67.00
2018-03-29T13:48:07.039Z,66.70
2018-03-29T13:50:41.865Z,66.90
2018-03-29T13:53:16.403Z,66.80
2018-03-29T13:55:51.201Z,67.60
2018-03-29T13:58:27.171Z,67.90
2018-03-29T14:01:01.424Z,67.80
2018-03-29T14:03:36.556Z,70.00
2018-03-29T14:06:12.069Z,71.00
2018-03-29T14:08:46.331Z,71.00
2018-03-29T14:11:21.128Z,70.20
2018-03-29T14:13:56.172Z,69.80
2018-03-29T14:16:29.936Z,69.80
2018-03-29T14:19:03.904Z,66.60
2018-03-29T14:21:38.175Z,66.00
2018-03-29T14:24:12.712Z,66.40
2018-03-29T14:26:47.436Z,66.60
2018-03-29T14:29:22.037Z,65.30
2018-03-29T14:31:57.692Z,65.90
2018-03-29T14:34:31.905Z,65.80
2018-03-29T14:37:06.937Z,60.60
2018-03-29T14:39:41.711Z,60.20
2018-03-29T14:42:17.314Z,61.80
2018-03-29T14:44:52.678Z,60.40
2018-03-29T14:47:28.303Z,59.70
2018-03-29T14:50:03.327Z,60.70
2018-03-29T14:52:37.159Z,60.80
2018-03-29T14:55:11.957Z,65.90
2018-03-29T14:57:46.386Z,66.00
2018-03-29T15:00:21.304Z,63.30
2018-03-29T15:02:57.206Z,68.60
2018-03-29T15:05:31.915Z,68.20
2018-03-29T15:08:06.621Z,67.10
2018-03-29T15:10:41.092Z,68.10
2018-03-29T15:13:15.940Z,67.60
2018-03-29T15:15:51.744Z,67.70
2018-03-29T15:18:28.291Z,68.10
2018-03-29T15:21:03.196Z,70.30
2018-03-29T15:23:38.163Z,68.00
2018-03-29T15:26:12.064Z,68.00
2018-03-29T15:28:46.676Z,67.00
2018-03-29T15:31:21.158Z,67.00
2018-03-29T15:33:55.665Z,68.40
2018-03-29T15:36:29.543Z,68.20
2018-03-29T15:39:04.153Z,70.60
2018-03-29T15:41:39.483Z,71.10
2018-03-29T15:44:14.327Z,72.40
2018-03-29T15:46:49.349Z,71.40
2018-03-29T15:49:23.280Z,71.50
2018-03-29T15:51:58.315Z,71.20
2018-03-29T15:54:32.097Z,71.20
2018-03-29T15:57:06.600Z,72.00
2018-03-29T15:59:40.250Z,71.80
2018-03-29T16:02:14.031Z,74.80
2018-03-29T16:04:49.182Z,72.30
2018-03-29T16:07:23.804Z,72.60
2018-03-29T16:09:58.723Z,72.50
2018-03-29T16:12:33.472Z,71.60
2018-03-29T16:15:12.073Z,71.60
2018-03-29T16:17:47.526Z,71.20
2018-03-29T16:20:23.073Z,72.20
2018-03-29T16:22:57.842Z,72.30
2018-03-29T16:25:32.290Z,72.70
2018-03-29T16:28:06.643Z,72.60
2018-03-29T16:30:40.623Z,73.60
2018-03-29T16:33:15.172Z,74.60
2018-03-29T16:35:49.358Z,74.60
2018-03-29T16:38:24.200Z,75.40
2018-03-29T16:40:58.708Z,75.30
2018-03-29T16:43:35.081Z,74.90
2018-03-29T16:46:09.802Z,75.80
2018-03-29T16:48:46.449Z,74.60
2018-03-29T16:51:22.020Z,74.80
2018-03-29T16:53:57.116Z,75.60
2018-03-29T16:56:31.670Z,74.50
2018-03-29T16:59:06.422Z,75.20
2018-03-29T17:01:42.543Z,74.00
2018-03-29T17:04:16.871Z,73.80
2018-03-29T17:06:51.936Z,74.00
2018-03-29T17:09:27.894Z,70.60
2018-03-29T17:12:01.448Z,70.50
2018-03-29T17:14:36.202Z,61.30
2018-03-29T17:17:10.912Z,56.90
2018-03-29T17:19:46.143Z,56.70
2018-03-29T17:22:21.078Z,56.40
2018-03-29T17:24:56.352Z,56.40
2018-03-29T17:27:30.056Z,59.10
2018-03-29T17:30:03.951Z,61.10
2018-03-29T17:32:38.452Z,63.60
2018-03-29T17:35:13.005Z,63.70
2018-03-29T17:37:47.911Z,63.70
2018-03-29T17:40:21.813Z,65.40
2018-03-29T17:42:56.152Z,66.80
2018-03-29T17:45:30.336Z,70.90
2018-03-29T17:48:04.467Z,70.40
2018-03-29T17:50:39.294Z,73.40
2018-03-29T17:53:13.081Z,73.40
2018-03-29T17:55:48.465Z,76.00
2018-03-29T17:58:22.753Z,76.00
2018-03-29T18:00:57.079Z,78.90
2018-03-29T18:03:31.207Z,79.00
2018-03-29T18:06:07.952Z,81.30
2018-03-29T18:08:42.672Z,81.30
2018-03-29T18:11:17.940Z,82.70
2018-03-29T18:13:52.527Z,84.00
2018-03-29T18:16:27.467Z,84.00
2018-03-29T18:19:02.007Z,85.30
2018-03-29T18:21:37.029Z,85.80
2018-03-29T18:24:12.907Z,86.00
2018-03-29T18:26:47.708Z,87.00
2018-03-29T18:29:21.737Z,87.00
2018-03-29T18:31:57.271Z,87.20
2018-03-29T18:34:31.570Z,87.20
2018-03-29T18:37:06.720Z,90.10
2018-03-29T18:39:41.553Z,90.40
2018-03-29T18:42:16.877Z,91.20
2018-03-29T18:44:51.296Z,91.20
2018-03-29T18:47:25.314Z,90.80
2018-03-29T18:49:59.844Z,90.60
2018-03-29T18:52:33.846Z,90.60
2018-03-29T18:55:08.862Z,91.00
2018-03-29T18:57:42.558Z,91.00
2018-03-29T19:00:16.895Z,91.30
2018-03-29T19:02:50.801Z,91.30
2018-03-29T19:05:26.133Z,92.00
2018-03-29T19:08:01.676Z,92.50
2018-03-29T19:10:37.047Z,93.20
2018-03-29T19:13:11.138Z,93.20
2018-03-29T19:15:46.088Z,93.00
2018-03-29T19:18:20.835Z,93.30
2018-03-29T19:20:55.738Z,93.30
2018-03-29T19:23:29.652Z,93.60
2018-03-29T19:26:03.439Z,93.30
2018-03-29T19:28:37.764Z,93.20
2018-03-29T19:31:12.085Z,93.90
2018-03-29T19:33:46.157Z,93.70
2018-03-29T19:36:21.281Z,93.80
2018-03-29T19:38:55.341Z,93.80
2018-03-29T19:41:29.351Z,94.10
2018-03-29T19:44:03.263Z,94.10
2018-03-29T19:46:38.292Z,94.20
2018-03-29T19:49:12.001Z,94.50
2018-03-29T19:51:45.785Z,94.70
2018-03-29T19:54:19.792Z,94.80
2018-03-29T19:56:53.792Z,94.60
2018-03-29T19:59:28.632Z,94.80
2018-03-29T20:02:02.718Z,95.70
2018-03-29T20:04:38.188Z,95.50
2018-03-29T20:07:12.090Z,95.50
2018-03-29T20:09:46.388Z,95.10
2018-03-29T20:12:20.389Z,95.10
2018-03-29T20:14:55.079Z,95.10
2018-03-29T20:17:28.947Z,95.10
2018-03-29T20:20:04.073Z,95.40
2018-03-29T20:22:38.619Z,96.40
2018-03-29T20:25:12.532Z,96.40
2018-03-29T20:27:46.372Z,95.90
2018-03-29T20:30:20.850Z,95.50
2018-03-29T20:32:56.183Z,96.50
2018-03-29T20:35:30.421Z,96.60
2018-03-29T20:38:05.619Z,96.60
2018-03-29T20:40:39.466Z,96.60
2018-03-29T20:43:15.188Z,96.30
2018-03-29T20:45:50.603Z,96.20
2018-03-29T20:48:24.821Z,96.20
2018-03-29T20:51:00.188Z,97.00
2018-03-29T20:53:36.057Z,97.20
2018-03-29T20:56:11.810Z,97.20
2018-03-29T20:58:46.538Z,97.20
2018-03-29T21:01:21.881Z,97.20
2018-03-29T21:03:57.599Z,97.50
2018-03-29T21:06:32.254Z,97.10
2018-03-29T21:09:06.934Z,97.20
2018-03-29T21:11:41.770Z,97.20
2018-03-29T21:14:16.648Z,97.50
2018-03-29T21:16:50.531Z,97.60
2018-03-29T21:19:24.783Z,98.30
2018-03-29T21:21:59.456Z,97.70
2018-03-29T21:24:34.193Z,97.70
2018-03-29T21:27:09.674Z,97.90
2018-03-29T21:29:44.227Z,98.50
2018-03-29T21:32:19.735Z,98.80
2018-03-29T21:34:54.532Z,99.20
2018-03-29T21:37:30.074Z,99.20
2018-03-29T21:40:05.198Z,98.40
2018-03-29T21:42:40.252Z,98.30
2018-03-29T21:45:16.082Z,98.30
2018-03-29T21:47:50.502Z,99.30
2018-03-29T21:50:26.663Z,99.20
2018-03-29T21:53:01.084Z,99.60
2018-03-29T21:55:35.771Z,99.90
2018-03-29T21:58:10.159Z,99.90
2018-03-29T22:00:44.027Z,99.50
2018-03-29T22:03:18.783Z,99.10
2018-03-29T22:05:52.880Z,99.10
2018-03-29T22:08:27.812Z,99.30
2018-03-29T22:11:02.916Z,99.90
2018-03-29T22:13:36.840Z,99.90
2018-03-29T22:16:10.943Z,99.90
2018-03-29T22:18:45.312Z,99.90
2018-03-29T22:21:20.007Z,99.90
2018-03-29T22:23:53.938Z,99.90
2018-03-29T22:26:28.830Z,99.90
2018-03-29T22:29:02.431Z,99.90
2018-03-29T22:31:37.673Z,99.90
2018-03-29T22:34:12.330Z,99.90
2018-03-29T22:36:47.027Z,99.80
2018-03-29T22:39:21.456Z,99.90
2018-03-29T22:41:56.066Z,99.90
2018-03-29T22:44:30.800Z,99.90
2018-03-29T22:47:05.761Z,99.90
2018-03-29T22:49:39.596Z,99.90
2018-03-29T22:52:13.438Z,99.90
2018-03-29T22:54:48.071Z,99.90
2018-03-29T22:57:22.995Z,99.90
2018-03-29T22:59:57.404Z,99.90
2018-03-29T23:02:32.061Z,99.90
2018-03-29T23:05:06.592Z,99.90
2018-03-29T23:07:40.484Z,99.90
2018-03-29T23:10:15.826Z,99.90
2018-03-29T23:12:50.553Z,99.90
2018-03-29T23:15:25.764Z,99.90
2018-03-29T23:18:00.114Z,99.90
2018-03-29T23:20:34.193Z,99.90
2018-03-29T23:23:09.532Z,99.90
2018-03-29T23:25:43.351Z,99.90
2018-03-29T23:28:17.748Z,99.90
2018-03-29T23:30:51.560Z,99.90
2018-03-29T23:33:26.196Z,99.90
2018-03-29T23:36:01.059Z,99.90
2018-03-29T23:38:34.853Z,99.90
2018-03-29T23:41:09.523Z,99.90
2018-03-29T23:43:45.108Z,99.90
2018-03-29T23:46:20.148Z,99.90
2018-03-29T23:48:54.346Z,99.90
2018-03-29T23:51:29.509Z,99.90
2018-03-29T23:54:03.904Z,99.90
2018-03-29T23:56:37.998Z,99.90
2018-03-29T23:59:11.969Z,99.90
